sensor_id;sensor_type;location;lat;lon;timestamp;pressure;altitude;pressure_sealevel;temperature;humidity
6090;BME280;3073;42.660;23.316;2023-01-29T00:01:31;94610.72;;;1.05;100.00
6090;BME280;3073;42.660;23.316;2023-01-29T00:03:58;94610.66;;;1.13;100.00
6090;BME280;3073;42.660;23.316;2023-01-29T00:06:25;94607.44;;;0.75;100.00
6090;BME280;3073;42.660;23.316;2023-01-29T00:08:52;94605.53;;;0.92;100.00
6090;BME280;3073;42.660;23.316;2023-01-29T00:11:18;94613.94;;;0.55;100.00
6090;BME280;3073;42.660;23.316;2023-01-29T00:13:46;94616.19;;;0.50;100.00
6090;BME280;3073;42.660;23.316;2023-01-29T00:16:14;94619.72;;;0.70;100.00
6090;BME280;3073;42.660;23.316;2023-01-29T00:18:41;94619.75;;;0.85;100.00
6090;BME280;3073;42.660;23.316;2023-01-29T00:21:09;94621.63;;;0.53;100.00
6090;BME280;3073;42.660;23.316;2023-01-29T00:23:36;94621.38;;;0.78;100.00
6090;BME280;3073;42.660;23.316;2023-01-29T00:26:03;94618.19;;;0.69;100.00
6090;BME280;3073;42.660;23.316;2023-01-29T00:28:30;94622.75;;;0.51;100.00
6090;BME280;3073;42.660;23.316;2023-01-29T00:30:57;94625.97;;;0.74;100.00
6090;BME280;3073;42.660;23.316;2023-01-29T00:33:27;94625.88;;;0.97;100.00
6090;BME280;3073;42.660;23.316;2023-01-29T00:35:54;94630.91;;;0.82;100.00
6090;BME280;3073;42.660;23.316;2023-01-29T00:38:21;94626.16;;;0.73;100.00
6090;BME280;3073;42.660;23.316;2023-01-29T00:40:48;94618.19;;;0.84;100.00
6090;BME280;3073;42.660;23.316;2023-01-29T00:43:32;94629.09;;;0.62;100.00
6090;BME280;3073;42.660;23.316;2023-01-29T00:46:16;94627.16;;;0.64;100.00
6090;BME280;3073;42.660;23.316;2023-01-29T00:48:44;94620.78;;;0.76;100.00
6090;BME280;3073;42.660;23.316;2023-01-29T00:51:11;94622.44;;;0.69;100.00
6090;BME280;3073;42.660;23.316;2023-01-29T00:53:38;94626.16;;;0.73;100.00
6090;BME280;3073;42.660;23.316;2023-01-29T00:56:05;94626.56;;;0.62;100.00
6090;BME280;3073;42.660;23.316;2023-01-29T00:58:32;94624.94;;;0.69;100.00
6090;BME280;3073;42.660;23.316;2023-01-29T01:01:00;94628.16;;;0.63;100.00
6090;BME280;3073;42.660;23.316;2023-01-29T01:03:27;94623.13;;;0.77;100.00
6090;BME280;3073;42.660;23.316;2023-01-29T01:06:05;94630.31;;;0.66;100.00
6090;BME280;3073;42.660;23.316;2023-01-29T01:08:33;94628.31;;;0.61;100.00
6090;BME280;3073;42.660;23.316;2023-01-29T01:11:17;94625.28;;;0.66;100.00
6090;BME280;3073;42.660;23.316;2023-01-29T01:13:44;94624.91;;;0.39;100.00
6090;BME280;3073;42.660;23.316;2023-01-29T01:16:13;94621.97;;;0.50;100.00
6090;BME280;3073;42.660;23.316;2023-01-29T01:18:40;94623.81;;;0.57;100.00
6090;BME280;3073;42.660;23.316;2023-01-29T01:21:08;94625.09;;;0.52;100.00
6090;BME280;3073;42.660;23.316;2023-01-29T01:23:35;94617.28;;;0.47;100.00
6090;BME280;3073;42.660;23.316;2023-01-29T01:26:07;94621.31;;;0.57;100.00
6090;BME280;3073;42.660;23.316;2023-01-29T01:28:35;94615.97;;;0.37;100.00
6090;BME280;3073;42.660;23.316;2023-01-29T01:31:07;94613.75;;;0.42;100.00
6090;BME280;3073;42.660;23.316;2023-01-29T01:33:34;94613.31;;;0.38;100.00
6090;BME280;3073;42.660;23.316;2023-01-29T01:36:03;94616.69;;;0.45;100.00
6090;BME280;3073;42.660;23.316;2023-01-29T01:38:31;94622.56;;;0.38;100.00
6090;BME280;3073;42.660;23.316;2023-01-29T01:40:58;94615.81;;;0.38;100.00
6090;BME280;3073;42.660;23.316;2023-01-29T01:43:25;94624.03;;;0.32;100.00
6090;BME280;3073;42.660;23.316;2023-01-29T01:45:51;94624.81;;;0.47;100.00
6090;BME280;3073;42.660;23.316;2023-01-29T01:48:21;94624.47;;;0.50;100.00
6090;BME280;3073;42.660;23.316;2023-01-29T01:50:50;94624.47;;;0.36;100.00
6090;BME280;3073;42.660;23.316;2023-01-29T01:53:22;94623.09;;;0.33;100.00
6090;BME280;3073;42.660;23.316;2023-01-29T01:55:55;94623.69;;;0.35;100.00
6090;BME280;3073;42.660;23.316;2023-01-29T01:58:26;94626.91;;;0.59;100.00
6090;BME280;3073;42.660;23.316;2023-01-29T02:00:55;94631.59;;;0.62;100.00
6090;BME280;3073;42.660;23.316;2023-01-29T02:03:23;94637.38;;;0.47;100.00
6090;BME280;3073;42.660;23.316;2023-01-29T02:06:10;94638.72;;;0.73;100.00
6090;BME280;3073;42.660;23.316;2023-01-29T02:08:57;94641.03;;;0.60;100.00
6090;BME280;3073;42.660;23.316;2023-01-29T02:11:44;94636.91;;;0.67;100.00
6090;BME280;3073;42.660;23.316;2023-01-29T02:14:11;94639.47;;;0.59;100.00
6090;BME280;3073;42.660;23.316;2023-01-29T02:16:38;94636.69;;;0.53;100.00
6090;BME280;3073;42.660;23.316;2023-01-29T02:19:10;94637.38;;;0.47;100.00
6090;BME280;3073;42.660;23.316;2023-01-29T02:21:52;94637.56;;;0.46;100.00
6090;BME280;3073;42.660;23.316;2023-01-29T02:24:58;94641.09;;;0.51;100.00
6090;BME280;3073;42.660;23.316;2023-01-29T02:27:45;94646.13;;;0.51;100.00
6090;BME280;3073;42.660;23.316;2023-01-29T02:30:22;94639.19;;;0.53;100.00
6090;BME280;3073;42.660;23.316;2023-01-29T02:32:53;94649.31;;;0.45;100.00
6090;BME280;3073;42.660;23.316;2023-01-29T02:35:27;94652.38;;;0.56;100.00
6090;BME280;3073;42.660;23.316;2023-01-29T02:38:09;94651.81;;;0.60;100.00
6090;BME280;3073;42.660;23.316;2023-01-29T02:40:41;94654.88;;;0.56;100.00
6090;BME280;3073;42.660;23.316;2023-01-29T02:43:18;94656.22;;;0.43;100.00
6090;BME280;3073;42.660;23.316;2023-01-29T02:45:54;94658.41;;;0.61;100.00
6090;BME280;3073;42.660;23.316;2023-01-29T02:48:29;94662.56;;;0.54;100.00
6090;BME280;3073;42.660;23.316;2023-01-29T02:51:03;94660.03;;;0.39;100.00
6090;BME280;3073;42.660;23.316;2023-01-29T02:53:35;94660.53;;;0.35;100.00
6090;BME280;3073;42.660;23.316;2023-01-29T02:56:09;94661.47;;;0.34;100.00
6090;BME280;3073;42.660;23.316;2023-01-29T02:58:40;94662.72;;;0.15;100.00
6090;BME280;3073;42.660;23.316;2023-01-29T03:01:12;94661.50;;;0.11;100.00
6090;BME280;3073;42.660;23.316;2023-01-29T03:03:44;94662.13;;;0.13;100.00
6090;BME280;3073;42.660;23.316;2023-01-29T03:06:16;94660.25;;;0.07;100.00
6090;BME280;3073;42.660;23.316;2023-01-29T03:08:51;94655.69;;;0.11;100.00
6090;BME280;3073;42.660;23.316;2023-01-29T03:11:20;94658.59;;;0.22;100.00
6090;BME280;3073;42.660;23.316;2023-01-29T03:13:50;94658.97;;;0.11;100.00
6090;BME280;3073;42.660;23.316;2023-01-29T03:16:23;94663.84;;;0.13;100.00
6090;BME280;3073;42.660;23.316;2023-01-29T03:18:56;94661.56;;;0.26;100.00
6090;BME280;3073;42.660;23.316;2023-01-29T03:21:27;94665.69;;;0.19;100.00
6090;BME280;3073;42.660;23.316;2023-01-29T03:24:16;94661.25;;;0.21;100.00
6090;BME280;3073;42.660;23.316;2023-01-29T03:27:06;94669.91;;;0.18;100.00
6090;BME280;3073;42.660;23.316;2023-01-29T03:29:53;94669.81;;;0.12;100.00
6090;BME280;3073;42.660;23.316;2023-01-29T03:32:40;94669.66;;;0.13;100.00
6090;BME280;3073;42.660;23.316;2023-01-29T03:35:09;94665.31;;;0.44;100.00
6090;BME280;3073;42.660;23.316;2023-01-29T03:37:41;94668.50;;;0.38;100.00
6090;BME280;3073;42.660;23.316;2023-01-29T03:40:10;94670.63;;;0.49;100.00
6090;BME280;3073;42.660;23.316;2023-01-29T03:42:45;94667.50;;;0.62;100.00
6090;BME280;3073;42.660;23.316;2023-01-29T03:45:18;94672.59;;;0.39;100.00
6090;BME280;3073;42.660;23.316;2023-01-29T03:47:53;94668.84;;;0.35;100.00
6090;BME280;3073;42.660;23.316;2023-01-29T03:50:32;94671.13;;;0.22;100.00
6090;BME280;3073;42.660;23.316;2023-01-29T03:53:07;94663.81;;;0.35;100.00
6090;BME280;3073;42.660;23.316;2023-01-29T03:55:43;94661.38;;;0.27;100.00
6090;BME280;3073;42.660;23.316;2023-01-29T03:58:19;94666.16;;;0.14;100.00
6090;BME280;3073;42.660;23.316;2023-01-29T04:00:53;94672.97;;;0.28;100.00
6090;BME280;3073;42.660;23.316;2023-01-29T04:03:26;94665.84;;;0.17;100.00
6090;BME280;3073;42.660;23.316;2023-01-29T04:06:01;94674.66;;;0.13;100.00
6090;BME280;3073;42.660;23.316;2023-01-29T04:08:37;94660.59;;;0.04;100.00
6090;BME280;3073;42.660;23.316;2023-01-29T04:11:13;94668.09;;;0.12;100.00
6090;BME280;3073;42.660;23.316;2023-01-29T04:13:42;94671.28;;;0.43;100.00
6090;BME280;3073;42.660;23.316;2023-01-29T04:16:14;94675.00;;;0.47;100.00
6090;BME280;3073;42.660;23.316;2023-01-29T04:18:46;94674.25;;;0.24;100.00
6090;BME280;3073;42.660;23.316;2023-01-29T04:21:13;94675.22;;;0.23;100.00
6090;BME280;3073;42.660;23.316;2023-01-29T04:23:41;94669.75;;;0.20;100.00
6090;BME280;3073;42.660;23.316;2023-01-29T04:26:23;94672.41;;;0.18;100.00
6090;BME280;3073;42.660;23.316;2023-01-29T04:29:03;94679.56;;;0.29;100.00
6090;BME280;3073;42.660;23.316;2023-01-29T04:31:39;94685.81;;;0.33;100.00
6090;BME280;3073;42.660;23.316;2023-01-29T04:34:18;94683.94;;;0.27;100.00
6090;BME280;3073;42.660;23.316;2023-01-29T04:36:58;94684.63;;;0.21;100.00
6090;BME280;3073;42.660;23.316;2023-01-29T04:39:33;94685.13;;;0.39;100.00
6090;BME280;3073;42.660;23.316;2023-01-29T04:42:07;94688.41;;;0.40;100.00
6090;BME280;3073;42.660;23.316;2023-01-29T04:44:38;94688.94;;;0.13;100.00
6090;BME280;3073;42.660;23.316;2023-01-29T04:47:15;94688.63;;;0.30;100.00
6090;BME280;3073;42.660;23.316;2023-01-29T04:49:54;94679.56;;;0.29;100.00
6090;BME280;3073;42.660;23.316;2023-01-29T04:52:30;94689.19;;;0.18;100.00
6090;BME280;3073;42.660;23.316;2023-01-29T04:55:03;94689.94;;;0.26;100.00
6090;BME280;3073;42.660;23.316;2023-01-29T04:57:38;94692.66;;;0.39;100.00
6090;BME280;3073;42.660;23.316;2023-01-29T05:00:15;94689.25;;;0.32;100.00
6090;BME280;3073;42.660;23.316;2023-01-29T05:02:44;94694.94;;;0.26;100.00
6090;BME280;3073;42.660;23.316;2023-01-29T05:05:15;94689.59;;;0.29;100.00
6090;BME280;3073;42.660;23.316;2023-01-29T05:07:44;94697.50;;;0.41;100.00
6090;BME280;3073;42.660;23.316;2023-01-29T05:10:14;94695.59;;;0.20;100.00
6090;BME280;3073;42.660;23.316;2023-01-29T05:12:45;94695.16;;;0.39;100.00
6090;BME280;3073;42.660;23.316;2023-01-29T05:15:17;94694.28;;;0.32;100.00
6090;BME280;3073;42.660;23.316;2023-01-29T05:17:45;94699.28;;;0.10;100.00
6090;BME280;3073;42.660;23.316;2023-01-29T05:20:13;94702.59;;;0.33;100.00
6090;BME280;3073;42.660;23.316;2023-01-29T05:22:41;94703.41;;;0.25;100.00
6090;BME280;3073;42.660;23.316;2023-01-29T05:25:19;94704.97;;;0.26;100.00
6090;BME280;3073;42.660;23.316;2023-01-29T05:27:48;94697.50;;;0.41;100.00
6090;BME280;3073;42.660;23.316;2023-01-29T05:30:30;94698.63;;;0.38;100.00
6090;BME280;3073;42.660;23.316;2023-01-29T05:32:57;94705.44;;;0.30;100.00
6090;BME280;3073;42.660;23.316;2023-01-29T05:35:25;94710.81;;;0.41;100.00
6090;BME280;3073;42.660;23.316;2023-01-29T05:37:54;94712.31;;;0.28;100.00
6090;BME280;3073;42.660;23.316;2023-01-29T05:40:21;94713.66;;;0.16;100.00
6090;BME280;3073;42.660;23.316;2023-01-29T05:42:48;94721.31;;;0.22;100.00
6090;BME280;3073;42.660;23.316;2023-01-29T05:45:16;94717.69;;;0.25;100.00
6090;BME280;3073;42.660;23.316;2023-01-29T05:47:43;94718.28;;;0.27;100.00
6090;BME280;3073;42.660;23.316;2023-01-29T05:50:10;94725.88;;;0.41;100.00
6090;BME280;3073;42.660;23.316;2023-01-29T05:52:39;94726.22;;;0.16;100.00
6090;BME280;3073;42.660;23.316;2023-01-29T05:55:08;94726.66;;;0.19;100.00
6090;BME280;3073;42.660;23.316;2023-01-29T05:57:36;94723.84;;;0.14;100.00
6090;BME280;3073;42.660;23.316;2023-01-29T06:00:06;94733.06;;;-0.01;100.00
6090;BME280;3073;42.660;23.316;2023-01-29T06:02:33;94733.00;;;0.07;100.00
6090;BME280;3073;42.660;23.316;2023-01-29T06:05:00;94734.63;;;0.00;100.00
6090;BME280;3073;42.660;23.316;2023-01-29T06:07:27;94729.53;;;0.08;100.00
6090;BME280;3073;42.660;23.316;2023-01-29T06:09:55;94739.63;;;0.00;100.00
6090;BME280;3073;42.660;23.316;2023-01-29T06:12:22;94739.00;;;-0.02;100.00
6090;BME280;3073;42.660;23.316;2023-01-29T06:14:49;94743.66;;;0.09;100.00
6090;BME280;3073;42.660;23.316;2023-01-29T06:17:16;94749.28;;;0.11;100.00
6090;BME280;3073;42.660;23.316;2023-01-29T06:19:43;94748.88;;;-0.01;100.00
6090;BME280;3073;42.660;23.316;2023-01-29T06:22:10;94753.13;;;-0.09;100.00
6090;BME280;3073;42.660;23.316;2023-01-29T06:24:37;94756.88;;;-0.05;100.00
6090;BME280;3073;42.660;23.316;2023-01-29T06:27:05;94760.44;;;0.00;100.00
6090;BME280;3073;42.660;23.316;2023-01-29T06:29:32;94765.13;;;0.04;100.00
6090;BME280;3073;42.660;23.316;2023-01-29T06:31:59;94768.94;;;-0.01;100.00
6090;BME280;3073;42.660;23.316;2023-01-29T06:34:26;94770.47;;;0.09;100.00
6090;BME280;3073;42.660;23.316;2023-01-29T06:36:53;94777.38;;;0.07;100.00
6090;BME280;3073;42.660;23.316;2023-01-29T06:39:20;94771.38;;;0.08;100.00
6090;BME280;3073;42.660;23.316;2023-01-29T06:41:47;94780.25;;;0.26;100.00
6090;BME280;3073;42.660;23.316;2023-01-29T06:44:15;94772.53;;;0.50;100.00
6090;BME280;3073;42.660;23.316;2023-01-29T06:46:42;94778.22;;;0.67;100.00
6090;BME280;3073;42.660;23.316;2023-01-29T06:49:09;94781.03;;;0.72;100.00
6090;BME280;3073;42.660;23.316;2023-01-29T06:51:36;94774.78;;;0.68;100.00
6090;BME280;3073;42.660;23.316;2023-01-29T06:54:03;94781.94;;;0.57;100.00
6090;BME280;3073;42.660;23.316;2023-01-29T06:56:30;94791.06;;;0.72;100.00
6090;BME280;3073;42.660;23.316;2023-01-29T06:58:57;94789.16;;;0.74;100.00
6090;BME280;3073;42.660;23.316;2023-01-29T07:01:25;94789.50;;;0.71;100.00
6090;BME280;3073;42.660;23.316;2023-01-29T07:03:52;94789.94;;;0.75;100.00
6090;BME280;3073;42.660;23.316;2023-01-29T07:06:19;94798.75;;;0.71;100.00
6090;BME280;3073;42.660;23.316;2023-01-29T07:08:46;94790.28;;;0.72;100.00
6090;BME280;3073;42.660;23.316;2023-01-29T07:11:13;94789.44;;;0.79;100.00
6090;BME280;3073;42.660;23.316;2023-01-29T07:13:45;94793.19;;;0.83;100.00
6090;BME280;3073;42.660;23.316;2023-01-29T07:16:13;94801.09;;;0.72;100.00
6090;BME280;3073;42.660;23.316;2023-01-29T07:18:42;94801.56;;;0.76;100.00
6090;BME280;3073;42.660;23.316;2023-01-29T07:21:08;94804.75;;;0.70;100.00
6090;BME280;3073;42.660;23.316;2023-01-29T07:23:36;94810.09;;;0.89;100.00
6090;BME280;3073;42.660;23.316;2023-01-29T07:26:03;94811.28;;;0.93;100.00
6090;BME280;3073;42.660;23.316;2023-01-29T07:28:31;94807.59;;;0.67;100.00
6090;BME280;3073;42.660;23.316;2023-01-29T07:31:01;94815.16;;;0.81;100.00
6090;BME280;3073;42.660;23.316;2023-01-29T07:33:27;94815.66;;;0.99;100.00
6090;BME280;3073;42.660;23.316;2023-01-29T07:35:56;94823.09;;;0.93;100.00
6090;BME280;3073;42.660;23.316;2023-01-29T07:38:23;94816.00;;;0.74;100.00
6090;BME280;3073;42.660;23.316;2023-01-29T07:40:50;94819.28;;;0.97;100.00
6090;BME280;3073;42.660;23.316;2023-01-29T07:43:17;94820.41;;;0.94;100.00
6090;BME280;3073;42.660;23.316;2023-01-29T07:45:44;94821.34;;;0.71;100.00
6090;BME280;3073;42.660;23.316;2023-01-29T07:48:12;94826.00;;;0.59;100.00
6090;BME280;3073;42.660;23.316;2023-01-29T07:50:39;94827.84;;;0.65;100.00
6090;BME280;3073;42.660;23.316;2023-01-29T07:53:11;94823.75;;;0.87;100.00
6090;BME280;3073;42.660;23.316;2023-01-29T07:55:39;94822.59;;;0.75;100.00
6090;BME280;3073;42.660;23.316;2023-01-29T07:58:06;94828.06;;;0.78;100.00
6090;BME280;3073;42.660;23.316;2023-01-29T08:00:32;94822.31;;;0.70;100.00
6090;BME280;3073;42.660;23.316;2023-01-29T08:03:05;94832.16;;;1.17;100.00
6090;BME280;3073;42.660;23.316;2023-01-29T08:05:32;94829.41;;;1.03;100.00
6090;BME280;3073;42.660;23.316;2023-01-29T08:07:59;94840.22;;;0.89;100.00
6090;BME280;3073;42.660;23.316;2023-01-29T08:10:28;94836.63;;;0.84;100.00
6090;BME280;3073;42.660;23.316;2023-01-29T08:12:55;94836.28;;;0.87;100.00
6090;BME280;3073;42.660;23.316;2023-01-29T08:15:22;94831.63;;;0.84;100.00
6090;BME280;3073;42.660;23.316;2023-01-29T08:17:49;94829.97;;;0.76;100.00
6090;BME280;3073;42.660;23.316;2023-01-29T08:20:17;94842.59;;;0.60;100.00
6090;BME280;3073;42.660;23.316;2023-01-29T08:22:44;94834.06;;;0.92;100.00
6090;BME280;3073;42.660;23.316;2023-01-29T08:25:12;94842.38;;;1.15;100.00
6090;BME280;3073;42.660;23.316;2023-01-29T08:27:41;94842.84;;;0.96;100.00
6090;BME280;3073;42.660;23.316;2023-01-29T08:30:09;94838.09;;;1.01;100.00
6090;BME280;3073;42.660;23.316;2023-01-29T08:32:36;94843.19;;;0.93;100.00
6090;BME280;3073;42.660;23.316;2023-01-29T08:35:04;94846.03;;;0.90;100.00
6090;BME280;3073;42.660;23.316;2023-01-29T08:37:31;94853.66;;;0.74;100.00
6090;BME280;3073;42.660;23.316;2023-01-29T08:39:58;94853.22;;;0.93;100.00
6090;BME280;3073;42.660;23.316;2023-01-29T08:42:25;94856.34;;;0.95;100.00
6090;BME280;3073;42.660;23.316;2023-01-29T08:44:53;94852.91;;;0.73;100.00
6090;BME280;3073;42.660;23.316;2023-01-29T08:47:21;94857.06;;;1.03;100.00
6090;BME280;3073;42.660;23.316;2023-01-29T08:49:48;94863.66;;;0.82;100.00
6090;BME280;3073;42.660;23.316;2023-01-29T08:52:15;94875.03;;;0.92;100.00
6090;BME280;3073;42.660;23.316;2023-01-29T08:54:42;94867.00;;;0.97;100.00
6090;BME280;3073;42.660;23.316;2023-01-29T08:57:09;94875.03;;;0.92;100.00
6090;BME280;3073;42.660;23.316;2023-01-29T08:59:35;94874.03;;;1.01;100.00
6090;BME280;3073;42.660;23.316;2023-01-29T09:02:05;94875.59;;;0.80;100.00
6090;BME280;3073;42.660;23.316;2023-01-29T09:04:32;94882.84;;;0.97;100.00
6090;BME280;3073;42.660;23.316;2023-01-29T09:06:59;94882.69;;;0.99;100.00
6090;BME280;3073;42.660;23.316;2023-01-29T09:09:26;94874.81;;;1.25;100.00
6090;BME280;3073;42.660;23.316;2023-01-29T09:11:53;94887.94;;;1.12;100.00
6090;BME280;3073;42.660;23.316;2023-01-29T09:14:20;94873.78;;;0.96;100.00
6090;BME280;3073;42.660;23.316;2023-01-29T09:16:47;94878.06;;;0.88;100.00
6090;BME280;3073;42.660;23.316;2023-01-29T09:19:16;94872.66;;;0.99;100.00
6090;BME280;3073;42.660;23.316;2023-01-29T09:21:42;94869.91;;;0.86;100.00
6090;BME280;3073;42.660;23.316;2023-01-29T09:24:09;94872.53;;;0.92;100.00
6090;BME280;3073;42.660;23.316;2023-01-29T09:26:36;94874.16;;;1.08;100.00
6090;BME280;3073;42.660;23.316;2023-01-29T09:29:04;94878.38;;;0.85;100.00
6090;BME280;3073;42.660;23.316;2023-01-29T09:31:31;94875.44;;;0.81;100.00
6090;BME280;3073;42.660;23.316;2023-01-29T09:33:58;94869.47;;;1.05;100.00
6090;BME280;3073;42.660;23.316;2023-01-29T09:36:26;94871.63;;;1.08;100.00
6090;BME280;3073;42.660;23.316;2023-01-29T09:38:53;94867.16;;;1.18;100.00
6090;BME280;3073;42.660;23.316;2023-01-29T09:41:36;94864.28;;;1.07;100.00
6090;BME280;3073;42.660;23.316;2023-01-29T09:44:15;94867.44;;;0.78;100.00
6090;BME280;3073;42.660;23.316;2023-01-29T09:46:47;94858.50;;;0.98;100.00
6090;BME280;3073;42.660;23.316;2023-01-29T09:49:23;94863.88;;;0.72;100.00
6090;BME280;3073;42.660;23.316;2023-01-29T09:51:56;94859.91;;;1.00;100.00
6090;BME280;3073;42.660;23.316;2023-01-29T09:54:30;94857.03;;;0.89;100.00
6090;BME280;3073;42.660;23.316;2023-01-29T09:56:59;94850.19;;;0.97;100.00
6090;BME280;3073;42.660;23.316;2023-01-29T09:59:30;94856.06;;;0.90;100.00
6090;BME280;3073;42.660;23.316;2023-01-29T10:02:08;94856.84;;;1.13;100.00
6090;BME280;3073;42.660;23.316;2023-01-29T10:04:49;94854.34;;;1.13;100.00
6090;BME280;3073;42.660;23.316;2023-01-29T10:10:35;94854.88;;;1.23;100.00
6090;BME280;3073;42.660;23.316;2023-01-29T10:13:16;94846.34;;;1.10;100.00
6090;BME280;3073;42.660;23.316;2023-01-29T10:15:51;94843.22;;;1.08;100.00
6090;BME280;3073;42.660;23.316;2023-01-29T10:18:48;94841.78;;;1.13;100.00
6090;BME280;3073;42.660;23.316;2023-01-29T10:21:35;94839.72;;;1.31;100.00
6090;BME280;3073;42.660;23.316;2023-01-29T10:24:15;94840.94;;;0.98;100.00
6090;BME280;3073;42.660;23.316;2023-01-29T10:26:48;94838.56;;;1.19;100.00
6090;BME280;3073;42.660;23.316;2023-01-29T10:29:18;94829.63;;;0.79;100.00
6090;BME280;3073;42.660;23.316;2023-01-29T10:31:49;94829.56;;;1.10;100.00
6090;BME280;3073;42.660;23.316;2023-01-29T10:34:22;94828.47;;;1.04;100.00
6090;BME280;3073;42.660;23.316;2023-01-29T10:36:50;94824.28;;;0.97;100.00
6090;BME280;3073;42.660;23.316;2023-01-29T10:39:20;94823.47;;;1.04;100.00
6090;BME280;3073;42.660;23.316;2023-01-29T10:42:01;94826.06;;;1.11;100.00
6090;BME280;3073;42.660;23.316;2023-01-29T10:44:39;94821.25;;;1.24;100.00
6090;BME280;3073;42.660;23.316;2023-01-29T10:47:37;94826.47;;;1.37;100.00
6090;BME280;3073;42.660;23.316;2023-01-29T10:50:16;94827.88;;;1.02;100.00
6090;BME280;3073;42.660;23.316;2023-01-29T10:53:03;94827.31;;;1.15;100.00
6090;BME280;3073;42.660;23.316;2023-01-29T10:55:45;94823.75;;;0.87;100.00
6090;BME280;3073;42.660;23.316;2023-01-29T10:58:28;94819.56;;;1.02;100.00
6090;BME280;3073;42.660;23.316;2023-01-29T11:00:56;94825.28;;;1.11;100.00
6090;BME280;3073;42.660;23.316;2023-01-29T11:03:26;94813.66;;;1.32;100.00
6090;BME280;3073;42.660;23.316;2023-01-29T11:06:00;94818.38;;;1.13;100.00
6090;BME280;3073;42.660;23.316;2023-01-29T11:08:36;94820.56;;;1.30;100.00
6090;BME280;3073;42.660;23.316;2023-01-29T11:11:07;94816.44;;;1.00;100.00
6090;BME280;3073;42.660;23.316;2023-01-29T11:13:41;94817.09;;;1.17;100.00
6090;BME280;3073;42.660;23.316;2023-01-29T11:16:09;94810.84;;;1.27;100.00
6090;BME280;3073;42.660;23.316;2023-01-29T11:18:57;94806.19;;;1.39;100.00
6090;BME280;3073;42.660;23.316;2023-01-29T11:21:25;94803.44;;;1.48;100.00
6090;BME280;3073;42.660;23.316;2023-01-29T11:24:08;94801.03;;;1.70;100.00
6090;BME280;3073;42.660;23.316;2023-01-29T11:26:38;94792.44;;;1.49;100.00
6090;BME280;3073;42.660;23.316;2023-01-29T11:29:28;94798.56;;;1.32;100.00
6090;BME280;3073;42.660;23.316;2023-01-29T11:31:58;94795.78;;;1.27;100.00
6090;BME280;3073;42.660;23.316;2023-01-29T11:34:25;94795.28;;;1.46;100.00
6090;BME280;3073;42.660;23.316;2023-01-29T11:36:56;94787.13;;;1.44;100.00
6090;BME280;3073;42.660;23.316;2023-01-29T11:39:24;94777.53;;;1.33;100.00
6090;BME280;3073;42.660;23.316;2023-01-29T11:41:54;94782.28;;;1.43;100.00
6090;BME280;3073;42.660;23.316;2023-01-29T11:44:31;94770.94;;;1.32;100.00
6090;BME280;3073;42.660;23.316;2023-01-29T11:47:10;94769.19;;;1.62;100.00
6090;BME280;3073;42.660;23.316;2023-01-29T11:49:38;94764.09;;;1.55;100.00
6090;BME280;3073;42.660;23.316;2023-01-29T11:52:08;94765.72;;;1.48;100.00
6090;BME280;3073;42.660;23.316;2023-01-29T11:54:39;94771.88;;;1.61;100.00
6090;BME280;3073;42.660;23.316;2023-01-29T11:57:26;94764.69;;;1.72;100.00
6090;BME280;3073;42.660;23.316;2023-01-29T11:59:57;94767.81;;;1.60;100.00
6090;BME280;3073;42.660;23.316;2023-01-29T12:02:30;94757.75;;;1.45;100.00
6090;BME280;3073;42.660;23.316;2023-01-29T12:05:02;94761.91;;;1.67;100.00
6090;BME280;3073;42.660;23.316;2023-01-29T12:07:31;94755.78;;;1.91;100.00
6090;BME280;3073;42.660;23.316;2023-01-29T12:09:58;94759.22;;;1.69;100.00
6090;BME280;3073;42.660;23.316;2023-01-29T12:12:31;94756.28;;;1.80;100.00
6090;BME280;3073;42.660;23.316;2023-01-29T12:15:15;94746.63;;;1.83;100.00
6090;BME280;3073;42.660;23.316;2023-01-29T12:17:51;94754.72;;;1.49;100.00
6090;BME280;3073;42.660;23.316;2023-01-29T12:20:24;94762.16;;;1.58;100.00
6090;BME280;3073;42.660;23.316;2023-01-29T12:23:00;94759.56;;;1.66;100.00
6090;BME280;3073;42.660;23.316;2023-01-29T12:25:42;94767.19;;;1.58;100.00
6090;BME280;3073;42.660;23.316;2023-01-29T12:28:26;94762.28;;;1.49;100.00
6090;BME280;3073;42.660;23.316;2023-01-29T12:31:07;94761.13;;;1.67;100.00
6090;BME280;3073;42.660;23.316;2023-01-29T12:33:42;94759.03;;;1.85;100.00
6090;BME280;3073;42.660;23.316;2023-01-29T12:36:17;94761.94;;;2.03;100.00
6090;BME280;3073;42.660;23.316;2023-01-29T12:38:47;94759.91;;;1.48;100.00
6090;BME280;3073;42.660;23.316;2023-01-29T12:41:27;94761.75;;;1.39;100.00
6090;BME280;3073;42.660;23.316;2023-01-29T12:43:58;94762.69;;;1.68;100.00
6090;BME280;3073;42.660;23.316;2023-01-29T12:46:32;94758.44;;;1.68;100.00
6090;BME280;3073;42.660;23.316;2023-01-29T12:49:09;94757.38;;;1.77;100.00
6090;BME280;3073;42.660;23.316;2023-01-29T12:51:41;94760.88;;;1.76;100.00
6090;BME280;3073;42.660;23.316;2023-01-29T12:54:15;94765.91;;;1.76;100.00
6090;BME280;3073;42.660;23.316;2023-01-29T12:56:47;94764.06;;;1.70;100.00
6090;BME280;3073;42.660;23.316;2023-01-29T12:59:23;94767.13;;;1.66;100.00
6090;BME280;3073;42.660;23.316;2023-01-29T13:01:54;94765.47;;;1.73;100.00
6090;BME280;3073;42.660;23.316;2023-01-29T13:04:34;94764.75;;;1.79;100.00
6090;BME280;3073;42.660;23.316;2023-01-29T13:07:11;94755.84;;;1.76;100.00
6090;BME280;3073;42.660;23.316;2023-01-29T13:09:42;94758.66;;;1.88;100.00
6090;BME280;3073;42.660;23.316;2023-01-29T13:12:13;94759.22;;;1.69;100.00
6090;BME280;3073;42.660;23.316;2023-01-29T13:14:45;94756.69;;;1.54;100.00
6090;BME280;3073;42.660;23.316;2023-01-29T13:17:20;94747.78;;;1.51;100.00
6090;BME280;3073;42.660;23.316;2023-01-29T13:19:50;94750.47;;;1.65;100.00
6090;BME280;3073;42.660;23.316;2023-01-29T13:22:21;94750.22;;;1.45;100.00
6090;BME280;3073;42.660;23.316;2023-01-29T13:24:49;94756.34;;;1.57;100.00
6090;BME280;3073;42.660;23.316;2023-01-29T13:27:23;94752.81;;;1.66;100.00
6090;BME280;3073;42.660;23.316;2023-01-29T13:29:51;94762.50;;;1.54;100.00
6090;BME280;3073;42.660;23.316;2023-01-29T13:32:25;94759.38;;;1.82;100.00
6090;BME280;3073;42.660;23.316;2023-01-29T13:34:57;94764.41;;;1.96;100.00
6090;BME280;3073;42.660;23.316;2023-01-29T13:37:29;94770.09;;;1.90;100.00